Flugplatz Heppenheim

Für EDEP sind keine METAR/TAF Berichte vorhanden.
Es werden die Flugwettermeldungen vom Flugplatz Mannheim-City in 18 km Entfernung angezeigt.

Bericht für EDFM

vom 16.01. um 09:50 UTC

Wind 6 kt aus 220°

Sichtweite 10 km oder mehr

bedeckt in 1100 ft

Temperatur 1.0°C

Taupunkt -1.0°C

Luftfeuchtigkeit 86%

Luftdruck 1027 hPa

EDFM 160950Z 22006KT 9999 OVC011 01/M01 Q1027
Keine Prognose (TAF) verfügbar.
Impressum